sensor_id;sensor_type;location;lat;lon;timestamp;pressure;altitude;pressure_sealevel;temperature;humidity
13594;BME280;6449;47.666;9.160;2023-02-20T00:02:59;98216.59;;;8.78;100.00
13594;BME280;6449;47.666;9.160;2023-02-20T00:07:52;98224.72;;;8.72;100.00
13594;BME280;6449;47.666;9.160;2023-02-20T00:12:47;98231.09;;;8.66;100.00
13594;BME280;6449;47.666;9.160;2023-02-20T00:17:41;98238.16;;;8.64;100.00
13594;BME280;6449;47.666;9.160;2023-02-20T00:22:35;98240.06;;;8.60;100.00
13594;BME280;6449;47.666;9.160;2023-02-20T00:27:29;98223.75;;;8.55;100.00
13594;BME280;6449;47.666;9.160;2023-02-20T00:32:24;98242.75;;;8.59;100.00
13594;BME280;6449;47.666;9.160;2023-02-20T00:37:18;98243.44;;;8.44;100.00
13594;BME280;6449;47.666;9.160;2023-02-20T00:42:11;98246.78;;;8.47;100.00
13594;BME280;6449;47.666;9.160;2023-02-20T00:47:04;98247.75;;;8.45;100.00
13594;BME280;6449;47.666;9.160;2023-02-20T00:52:00;98248.28;;;8.32;100.00
13594;BME280;6449;47.666;9.160;2023-02-20T00:56:53;98245.06;;;8.46;100.00
13594;BME280;6449;47.666;9.160;2023-02-20T01:01:47;98254.34;;;8.33;100.00
13594;BME280;6449;47.666;9.160;2023-02-20T01:06:40;98250.47;;;8.23;100.00
13594;BME280;6449;47.666;9.160;2023-02-20T01:11:35;98264.44;;;8.22;100.00
13594;BME280;6449;47.666;9.160;2023-02-20T01:16:31;98253.84;;;8.25;100.00
13594;BME280;6449;47.666;9.160;2023-02-20T01:21:25;98253.63;;;8.29;100.00
13594;BME280;6449;47.666;9.160;2023-02-20T01:26:19;98253.19;;;8.20;100.00
13594;BME280;6449;47.666;9.160;2023-02-20T01:31:14;98246.81;;;8.27;100.00
13594;BME280;6449;47.666;9.160;2023-02-20T01:36:08;98251.81;;;8.31;100.00
13594;BME280;6449;47.666;9.160;2023-02-20T01:41:03;98260.84;;;8.24;100.00
13594;BME280;6449;47.666;9.160;2023-02-20T01:46:45;98268.88;;;8.20;100.00
13594;BME280;6449;47.666;9.160;2023-02-20T01:51:43;98256.94;;;8.14;100.00
13594;BME280;6449;47.666;9.160;2023-02-20T01:56:38;98267.56;;;8.09;100.00
13594;BME280;6449;47.666;9.160;2023-02-20T02:01:33;98255.50;;;8.07;100.00
13594;BME280;6449;47.666;9.160;2023-02-20T02:06:29;98249.56;;;8.03;100.00
13594;BME280;6449;47.666;9.160;2023-02-20T02:11:26;98242.91;;;7.96;100.00
13594;BME280;6449;47.666;9.160;2023-02-20T02:16:31;98237.19;;;7.88;100.00
13594;BME280;6449;47.666;9.160;2023-02-20T02:28:23;98242.09;;;7.75;100.00
13594;BME280;6449;47.666;9.160;2023-02-20T02:34:25;98233.88;;;7.64;100.00
13594;BME280;6449;47.666;9.160;2023-02-20T02:39:36;98235.44;;;7.48;100.00
13594;BME280;6449;47.666;9.160;2023-02-20T02:44:41;98231.97;;;7.47;100.00
13594;BME280;6449;47.666;9.160;2023-02-20T02:49:47;98248.19;;;7.33;100.00
13594;BME280;6449;47.666;9.160;2023-02-20T02:54:44;98235.50;;;7.46;100.00
13594;BME280;6449;47.666;9.160;2023-02-20T02:59:42;98227.88;;;7.42;100.00
13594;BME280;6449;47.666;9.160;2023-02-20T03:04:38;98218.28;;;7.42;100.00
13594;BME280;6449;47.666;9.160;2023-02-20T03:09:37;98206.44;;;7.33;100.00
13594;BME280;6449;47.666;9.160;2023-02-20T03:14:40;98211.81;;;7.51;100.00
13594;BME280;6449;47.666;9.160;2023-02-20T03:25:16;98207.84;;;7.42;100.00
13594;BME280;6449;47.666;9.160;2023-02-20T03:30:20;98200.84;;;7.22;100.00
13594;BME280;6449;47.666;9.160;2023-02-20T03:35:19;98186.38;;;7.15;100.00
13594;BME280;6449;47.666;9.160;2023-02-20T03:40:33;98192.19;;;7.00;100.00
13594;BME280;6449;47.666;9.160;2023-02-20T03:45:48;98185.00;;;6.85;100.00
13594;BME280;6449;47.666;9.160;2023-02-20T03:50:42;98189.19;;;6.89;100.00
13594;BME280;6449;47.666;9.160;2023-02-20T03:55:56;98165.13;;;6.82;100.00
13594;BME280;6449;47.666;9.160;2023-02-20T04:00:57;98170.78;;;6.71;100.00
13594;BME280;6449;47.666;9.160;2023-02-20T04:05:56;98180.81;;;6.59;100.00
13594;BME280;6449;47.666;9.160;2023-02-20T04:10:56;98184.94;;;6.64;100.00
13594;BME280;6449;47.666;9.160;2023-02-20T04:15:56;98175.19;;;6.69;100.00
13594;BME280;6449;47.666;9.160;2023-02-20T04:20:54;98175.31;;;6.66;100.00
13594;BME280;6449;47.666;9.160;2023-02-20T04:25:54;98176.88;;;6.70;100.00
13594;BME280;6449;47.666;9.160;2023-02-20T04:30:49;98183.31;;;6.62;100.00
13594;BME280;6449;47.666;9.160;2023-02-20T04:35:45;98180.28;;;6.72;100.00
13594;BME280;6449;47.666;9.160;2023-02-20T04:40:38;98186.16;;;6.77;100.00
13594;BME280;6449;47.666;9.160;2023-02-20T04:45:32;98182.16;;;6.69;100.00
13594;BME280;6449;47.666;9.160;2023-02-20T04:50:28;98188.22;;;6.69;100.00
13594;BME280;6449;47.666;9.160;2023-02-20T04:55:24;98184.59;;;6.28;100.00
13594;BME280;6449;47.666;9.160;2023-02-20T05:00:18;98179.69;;;6.20;100.00
13594;BME280;6449;47.666;9.160;2023-02-20T05:05:18;98191.13;;;6.16;100.00
13594;BME280;6449;47.666;9.160;2023-02-20T05:10:16;98190.16;;;6.19;100.00
13594;BME280;6449;47.666;9.160;2023-02-20T05:15:15;98185.63;;;6.24;100.00
13594;BME280;6449;47.666;9.160;2023-02-20T05:20:11;98187.69;;;5.92;100.00
13594;BME280;6449;47.666;9.160;2023-02-20T05:25:06;98190.63;;;5.82;100.00
13594;BME280;6449;47.666;9.160;2023-02-20T05:30:00;98191.72;;;5.74;100.00
13594;BME280;6449;47.666;9.160;2023-02-20T05:34:58;98192.78;;;5.70;100.00
13594;BME280;6449;47.666;9.160;2023-02-20T05:39:51;98194.78;;;5.62;100.00
13594;BME280;6449;47.666;9.160;2023-02-20T05:44:44;98192.94;;;5.66;100.00
13594;BME280;6449;47.666;9.160;2023-02-20T05:49:39;98184.66;;;5.55;100.00
13594;BME280;6449;47.666;9.160;2023-02-20T05:54:34;98169.00;;;5.56;100.00
13594;BME280;6449;47.666;9.160;2023-02-20T05:59:27;98180.56;;;5.22;100.00
13594;BME280;6449;47.666;9.160;2023-02-20T06:04:20;98176.16;;;5.24;100.00
13594;BME280;6449;47.666;9.160;2023-02-20T06:09:14;98177.16;;;5.20;100.00
13594;BME280;6449;47.666;9.160;2023-02-20T06:14:10;98178.69;;;5.26;100.00
13594;BME280;6449;47.666;9.160;2023-02-20T06:19:03;98178.00;;;5.21;100.00
13594;BME280;6449;47.666;9.160;2023-02-20T06:23:58;98176.94;;;5.26;100.00
13594;BME280;6449;47.666;9.160;2023-02-20T06:28:51;98181.44;;;5.21;100.00
13594;BME280;6449;47.666;9.160;2023-02-20T06:33:46;98175.81;;;5.09;100.00
13594;BME280;6449;47.666;9.160;2023-02-20T06:38:40;98178.84;;;5.21;100.00
13594;BME280;6449;47.666;9.160;2023-02-20T06:43:33;98178.25;;;5.13;100.00
13594;BME280;6449;47.666;9.160;2023-02-20T06:48:26;98184.91;;;5.22;100.00
13594;BME280;6449;47.666;9.160;2023-02-20T06:53:21;98197.09;;;5.20;100.00
13594;BME280;6449;47.666;9.160;2023-02-20T06:58:14;98197.91;;;5.22;100.00
13594;BME280;6449;47.666;9.160;2023-02-20T07:03:08;98192.88;;;5.16;100.00
13594;BME280;6449;47.666;9.160;2023-02-20T07:08:01;98199.75;;;5.18;100.00
13594;BME280;6449;47.666;9.160;2023-02-20T07:12:56;98193.50;;;4.97;100.00
13594;BME280;6449;47.666;9.160;2023-02-20T07:17:49;98190.16;;;4.94;100.00
13594;BME280;6449;47.666;9.160;2023-02-20T07:22:49;98186.63;;;4.96;100.00
13594;BME280;6449;47.666;9.160;2023-02-20T07:27:42;98183.25;;;5.19;100.00
13594;BME280;6449;47.666;9.160;2023-02-20T07:32:37;98176.31;;;5.45;100.00
13594;BME280;6449;47.666;9.160;2023-02-20T07:37:31;98168.75;;;5.62;100.00
13594;BME280;6449;47.666;9.160;2023-02-20T07:42:24;98176.63;;;5.61;100.00
13594;BME280;6449;47.666;9.160;2023-02-20T07:47:17;98166.75;;;5.70;100.00
13594;BME280;6449;47.666;9.160;2023-02-20T07:52:15;98168.13;;;5.81;100.00
13594;BME280;6449;47.666;9.160;2023-02-20T07:57:08;98159.72;;;5.72;100.00
13594;BME280;6449;47.666;9.160;2023-02-20T08:02:02;98171.75;;;6.00;100.00
13594;BME280;6449;47.666;9.160;2023-02-20T08:06:55;98171.19;;;6.15;100.00
13594;BME280;6449;47.666;9.160;2023-02-20T08:11:50;98172.22;;;6.35;100.00
13594;BME280;6449;47.666;9.160;2023-02-20T08:16:43;98174.31;;;6.47;100.00
13594;BME280;6449;47.666;9.160;2023-02-20T08:21:37;98167.66;;;6.83;100.00
13594;BME280;6449;47.666;9.160;2023-02-20T08:26:32;98159.28;;;6.97;100.00
13594;BME280;6449;47.666;9.160;2023-02-20T08:31:27;98171.94;;;7.06;100.00
13594;BME280;6449;47.666;9.160;2023-02-20T08:36:24;98166.09;;;7.22;100.00
13594;BME280;6449;47.666;9.160;2023-02-20T08:41:17;98148.22;;;7.33;100.00
13594;BME280;6449;47.666;9.160;2023-02-20T08:46:11;98141.88;;;7.59;100.00
13594;BME280;6449;47.666;9.160;2023-02-20T08:51:07;98148.38;;;7.69;100.00
13594;BME280;6449;47.666;9.160;2023-02-20T08:56:01;98138.25;;;7.82;100.00
13594;BME280;6449;47.666;9.160;2023-02-20T09:00:57;98129.88;;;7.94;100.00
13594;BME280;6449;47.666;9.160;2023-02-20T09:05:51;98119.47;;;7.93;100.00
13594;BME280;6449;47.666;9.160;2023-02-20T09:10:45;98122.19;;;8.10;100.00
13594;BME280;6449;47.666;9.160;2023-02-20T09:15:39;98110.81;;;8.11;100.00
13594;BME280;6449;47.666;9.160;2023-02-20T09:20:33;98115.09;;;8.31;100.00
13594;BME280;6449;47.666;9.160;2023-02-20T09:25:26;98108.03;;;8.52;100.00
13594;BME280;6449;47.666;9.160;2023-02-20T09:30:21;98114.69;;;8.76;100.00
13594;BME280;6449;47.666;9.160;2023-02-20T09:35:19;98110.84;;;8.83;100.00
13594;BME280;6449;47.666;9.160;2023-02-20T09:40:14;98115.19;;;9.02;100.00
13594;BME280;6449;47.666;9.160;2023-02-20T09:45:13;98110.88;;;9.18;100.00
13594;BME280;6449;47.666;9.160;2023-02-20T09:50:16;98106.69;;;9.49;100.00
13594;BME280;6449;47.666;9.160;2023-02-20T09:55:14;98102.66;;;9.59;100.00
13594;BME280;6449;47.666;9.160;2023-02-20T10:00:20;98099.56;;;9.84;100.00
13594;BME280;6449;47.666;9.160;2023-02-20T10:05:33;98096.44;;;9.77;100.00
13594;BME280;6449;47.666;9.160;2023-02-20T10:10:33;98105.72;;;9.67;100.00
13594;BME280;6449;47.666;9.160;2023-02-20T10:15:38;98108.50;;;9.80;100.00
13594;BME280;6449;47.666;9.160;2023-02-20T10:20:51;98101.56;;;9.96;100.00
13594;BME280;6449;47.666;9.160;2023-02-20T10:25:55;98098.59;;;10.02;100.00
13594;BME280;6449;47.666;9.160;2023-02-20T10:30:57;98106.13;;;10.08;100.00
13594;BME280;6449;47.666;9.160;2023-02-20T10:36:00;98098.06;;;10.11;100.00
13594;BME280;6449;47.666;9.160;2023-02-20T10:41:05;98092.09;;;10.09;100.00
13594;BME280;6449;47.666;9.160;2023-02-20T10:46:09;98090.56;;;10.21;100.00
13594;BME280;6449;47.666;9.160;2023-02-20T10:51:25;98088.19;;;10.16;100.00
13594;BME280;6449;47.666;9.160;2023-02-20T10:56:56;98071.97;;;10.10;100.00
13594;BME280;6449;47.666;9.160;2023-02-20T11:01:57;98068.06;;;10.17;100.00
13594;BME280;6449;47.666;9.160;2023-02-20T11:06:57;98067.47;;;10.12;100.00
13594;BME280;6449;47.666;9.160;2023-02-20T11:11:55;98058.72;;;10.13;100.00
13594;BME280;6449;47.666;9.160;2023-02-20T11:16:55;98050.31;;;10.22;100.00
13594;BME280;6449;47.666;9.160;2023-02-20T11:21:52;98042.41;;;10.23;100.00
13594;BME280;6449;47.666;9.160;2023-02-20T11:26:48;98034.47;;;10.25;100.00
13594;BME280;6449;47.666;9.160;2023-02-20T11:31:44;98038.69;;;10.28;100.00
13594;BME280;6449;47.666;9.160;2023-02-20T11:36:44;98027.78;;;10.35;100.00
13594;BME280;6449;47.666;9.160;2023-02-20T11:41:39;98020.91;;;10.33;100.00
13594;BME280;6449;47.666;9.160;2023-02-20T11:46:33;98006.69;;;10.53;100.00
13594;BME280;6449;47.666;9.160;2023-02-20T11:51:37;97986.50;;;10.69;100.00
13594;BME280;6449;47.666;9.160;2023-02-20T11:56:31;97978.81;;;10.80;100.00
13594;BME280;6449;47.666;9.160;2023-02-20T12:01:32;97967.63;;;10.92;100.00
13594;BME280;6449;47.666;9.160;2023-02-20T12:06:41;97959.47;;;11.11;100.00
13594;BME280;6449;47.666;9.160;2023-02-20T12:11:35;97948.53;;;11.19;100.00
13594;BME280;6449;47.666;9.160;2023-02-20T12:16:56;97932.28;;;11.41;100.00
13594;BME280;6449;47.666;9.160;2023-02-20T12:22:04;97924.75;;;11.49;100.00
13594;BME280;6449;47.666;9.160;2023-02-20T12:27:30;97913.53;;;11.74;100.00
13594;BME280;6449;47.666;9.160;2023-02-20T12:32:42;97906.19;;;11.79;100.00
13594;BME280;6449;47.666;9.160;2023-02-20T12:37:55;97902.56;;;11.82;100.00
13594;BME280;6449;47.666;9.160;2023-02-20T12:43:03;97892.91;;;11.68;100.00
13594;BME280;6449;47.666;9.160;2023-02-20T12:48:18;97886.56;;;11.58;100.00
13594;BME280;6449;47.666;9.160;2023-02-20T12:53:47;97873.47;;;11.43;100.00
13594;BME280;6449;47.666;9.160;2023-02-20T12:58:49;97870.28;;;11.38;100.00
13594;BME280;6449;47.666;9.160;2023-02-20T13:03:59;97870.13;;;11.13;100.00
13594;BME280;6449;47.666;9.160;2023-02-20T13:09:05;97851.88;;;10.97;100.00
13594;BME280;6449;47.666;9.160;2023-02-20T13:14:18;97841.13;;;10.87;100.00
13594;BME280;6449;47.666;9.160;2023-02-20T13:19:22;97841.69;;;10.92;100.00
13594;BME280;6449;47.666;9.160;2023-02-20T13:24:35;97836.25;;;10.81;100.00
13594;BME280;6449;47.666;9.160;2023-02-20T13:29:29;97836.06;;;10.70;100.00
13594;BME280;6449;47.666;9.160;2023-02-20T13:34:37;97824.56;;;10.72;100.00
13594;BME280;6449;47.666;9.160;2023-02-20T13:39:39;97812.72;;;10.94;100.00
13594;BME280;6449;47.666;9.160;2023-02-20T13:44:42;97802.81;;;10.85;100.00
13594;BME280;6449;47.666;9.160;2023-02-20T13:49:55;97794.50;;;10.78;100.00
13594;BME280;6449;47.666;9.160;2023-02-20T13:54:51;97803.75;;;10.84;100.00
13594;BME280;6449;47.666;9.160;2023-02-20T13:59:47;97789.03;;;10.81;100.00
13594;BME280;6449;47.666;9.160;2023-02-20T14:04:54;97794.50;;;10.78;100.00
13594;BME280;6449;47.666;9.160;2023-02-20T14:09:59;97781.03;;;10.97;100.00
13594;BME280;6449;47.666;9.160;2023-02-20T14:14:54;97774.03;;;10.97;100.00
13594;BME280;6449;47.666;9.160;2023-02-20T14:19:58;97773.50;;;10.78;100.00
13594;BME280;6449;47.666;9.160;2023-02-20T14:25:24;97771.28;;;10.72;100.00
13594;BME280;6449;47.666;9.160;2023-02-20T14:30:22;97760.19;;;10.81;100.00
13594;BME280;6449;47.666;9.160;2023-02-20T14:35:44;97743.41;;;10.84;100.00
13594;BME280;6449;47.666;9.160;2023-02-20T14:40:43;97738.47;;;10.79;100.00
13594;BME280;6449;47.666;9.160;2023-02-20T14:45:38;97744.66;;;10.78;100.00
13594;BME280;6449;47.666;9.160;2023-02-20T14:50:35;97738.19;;;10.69;100.00
13594;BME280;6449;47.666;9.160;2023-02-20T14:55:29;97738.69;;;10.62;100.00
13594;BME280;6449;47.666;9.160;2023-02-20T15:00:33;97729.22;;;10.59;100.00
13594;BME280;6449;47.666;9.160;2023-02-20T15:05:30;97732.00;;;10.70;100.00
13594;BME280;6449;47.666;9.160;2023-02-20T15:10:36;97723.09;;;10.87;100.00
13594;BME280;6449;47.666;9.160;2023-02-20T15:15:34;97719.31;;;10.91;100.00
13594;BME280;6449;47.666;9.160;2023-02-20T15:20:36;97718.94;;;10.97;100.00
13594;BME280;6449;47.666;9.160;2023-02-20T15:25:31;97720.47;;;10.87;100.00
13594;BME280;6449;47.666;9.160;2023-02-20T15:30:25;97707.53;;;10.84;100.00
13594;BME280;6449;47.666;9.160;2023-02-20T15:35:24;97712.59;;;10.87;100.00
13594;BME280;6449;47.666;9.160;2023-02-20T15:40:22;97711.75;;;10.87;100.00
13594;BME280;6449;47.666;9.160;2023-02-20T15:45:17;97701.34;;;10.85;100.00
13594;BME280;6449;47.666;9.160;2023-02-20T15:50:11;97689.28;;;10.83;100.00
13594;BME280;6449;47.666;9.160;2023-02-20T15:55:05;97690.22;;;10.82;100.00
13594;BME280;6449;47.666;9.160;2023-02-20T15:59:58;97686.00;;;10.79;100.00
13594;BME280;6449;47.666;9.160;2023-02-20T16:04:53;97696.16;;;10.71;100.00
13594;BME280;6449;47.666;9.160;2023-02-20T16:09:46;97688.59;;;10.66;100.00
13594;BME280;6449;47.666;9.160;2023-02-20T16:14:40;97690.38;;;10.52;100.00
13594;BME280;6449;47.666;9.160;2023-02-20T16:19:33;97684.97;;;10.40;100.00
13594;BME280;6449;47.666;9.160;2023-02-20T16:24:35;97673.94;;;10.35;100.00
13594;BME280;6449;47.666;9.160;2023-02-20T16:29:32;97676.28;;;10.26;100.00
13594;BME280;6449;47.666;9.160;2023-02-20T16:34:30;97663.91;;;10.13;100.00
13594;BME280;6449;47.666;9.160;2023-02-20T16:39:24;97661.94;;;10.03;100.00
13594;BME280;6449;47.666;9.160;2023-02-20T16:44:24;97650.81;;;9.99;100.00
13594;BME280;6449;47.666;9.160;2023-02-20T16:49:21;97671.19;;;9.80;100.00
13594;BME280;6449;47.666;9.160;2023-02-20T16:54:15;97671.56;;;9.74;100.00
13594;BME280;6449;47.666;9.160;2023-02-20T16:59:08;97670.53;;;9.62;100.00
13594;BME280;6449;47.666;9.160;2023-02-20T17:04:03;97666.97;;;9.49;100.00
13594;BME280;6449;47.666;9.160;2023-02-20T17:09:00;97663.19;;;9.38;100.00
13594;BME280;6449;47.666;9.160;2023-02-20T17:13:53;97669.69;;;9.31;100.00
13594;BME280;6449;47.666;9.160;2023-02-20T17:18:46;97671.78;;;9.10;100.00
13594;BME280;6449;47.666;9.160;2023-02-20T17:23:41;97675.47;;;8.92;100.00
13594;BME280;6449;47.666;9.160;2023-02-20T17:28:34;97682.16;;;8.66;100.00
13594;BME280;6449;47.666;9.160;2023-02-20T17:33:28;97684.84;;;8.64;100.00
13594;BME280;6449;47.666;9.160;2023-02-20T17:38:21;97687.22;;;8.53;100.00
13594;BME280;6449;47.666;9.160;2023-02-20T17:43:16;97696.91;;;8.51;100.00
13594;BME280;6449;47.666;9.160;2023-02-20T17:48:09;97701.13;;;8.54;100.00
13594;BME280;6449;47.666;9.160;2023-02-20T17:53:03;97692.78;;;8.63;100.00
13594;BME280;6449;47.666;9.160;2023-02-20T17:57:56;97698.50;;;8.54;100.00
13594;BME280;6449;47.666;9.160;2023-02-20T18:02:51;97698.78;;;8.16;100.00
13594;BME280;6449;47.666;9.160;2023-02-20T18:07:44;97700.47;;;8.17;100.00
13594;BME280;6449;47.666;9.160;2023-02-20T18:12:37;97708.50;;;7.97;100.00
13594;BME280;6449;47.666;9.160;2023-02-20T18:17:33;97700.53;;;8.00;100.00
13594;BME280;6449;47.666;9.160;2023-02-20T18:22:28;97703.13;;;8.00;100.00
13594;BME280;6449;47.666;9.160;2023-02-20T18:27:21;97703.22;;;7.81;100.00
13594;BME280;6449;47.666;9.160;2023-02-20T18:32:16;97700.38;;;7.85;100.00
13594;BME280;6449;47.666;9.160;2023-02-20T18:37:09;97702.19;;;7.68;100.00
13594;BME280;6449;47.666;9.160;2023-02-20T18:42:04;97712.06;;;7.61;100.00
13594;BME280;6449;47.666;9.160;2023-02-20T18:46:59;97704.84;;;7.66;100.00
13594;BME280;6449;47.666;9.160;2023-02-20T18:51:52;97700.41;;;7.68;100.00
13594;BME280;6449;47.666;9.160;2023-02-20T18:56:46;97703.63;;;7.56;100.00
13594;BME280;6449;47.666;9.160;2023-02-20T19:01:42;97700.59;;;7.48;100.00
13594;BME280;6449;47.666;9.160;2023-02-20T19:06:36;97709.56;;;7.42;100.00
13594;BME280;6449;47.666;9.160;2023-02-20T19:11:31;97701.66;;;7.26;100.00
13594;BME280;6449;47.666;9.160;2023-02-20T19:16:26;97696.59;;;7.23;100.00
13594;BME280;6449;47.666;9.160;2023-02-20T19:21:21;97705.00;;;6.94;100.00
13594;BME280;6449;47.666;9.160;2023-02-20T19:26:14;97699.31;;;6.86;100.00
13594;BME280;6449;47.666;9.160;2023-02-20T19:31:09;97704.06;;;6.95;100.00
13594;BME280;6449;47.666;9.160;2023-02-20T19:36:03;97702.84;;;7.02;100.00
13594;BME280;6449;47.666;9.160;2023-02-20T19:41:02;97701.47;;;6.95;100.00
13594;BME280;6449;47.666;9.160;2023-02-20T19:45:56;97690.63;;;6.85;100.00
13594;BME280;6449;47.666;9.160;2023-02-20T19:50:49;97695.44;;;6.75;100.00
13594;BME280;6449;47.666;9.160;2023-02-20T19:55:43;97695.91;;;6.47;100.00
13594;BME280;6449;47.666;9.160;2023-02-20T20:00:38;97695.47;;;6.56;100.00
13594;BME280;6449;47.666;9.160;2023-02-20T20:05:31;97687.28;;;6.64;100.00
13594;BME280;6449;47.666;9.160;2023-02-20T20:10:25;97691.38;;;6.70;100.00
13594;BME280;6449;47.666;9.160;2023-02-20T20:15:23;97695.94;;;6.65;100.00
13594;BME280;6449;47.666;9.160;2023-02-20T20:20:20;97686.88;;;6.73;100.00
13594;BME280;6449;47.666;9.160;2023-02-20T20:25:15;97693.50;;;6.62;100.00
13594;BME280;6449;47.666;9.160;2023-02-20T20:30:15;97693.22;;;6.49;100.00
13594;BME280;6449;47.666;9.160;2023-02-20T20:35:10;97693.66;;;6.21;100.00
13594;BME280;6449;47.666;9.160;2023-02-20T20:40:06;97688.03;;;6.30;100.00
13594;BME280;6449;47.666;9.160;2023-02-20T20:45:06;97688.28;;;6.05;100.00
13594;BME280;6449;47.666;9.160;2023-02-20T20:50:00;97681.84;;;6.14;100.00
13594;BME280;6449;47.666;9.160;2023-02-20T20:54:55;97675.84;;;6.12;100.00
13594;BME280;6449;47.666;9.160;2023-02-20T20:59:50;97676.03;;;6.07;100.00
13594;BME280;6449;47.666;9.160;2023-02-20T21:04:47;97671.47;;;6.12;100.00
13594;BME280;6449;47.666;9.160;2023-02-20T21:09:44;97667.75;;;5.99;100.00
13594;BME280;6449;47.666;9.160;2023-02-20T21:14:37;97661.56;;;6.01;100.00
13594;BME280;6449;47.666;9.160;2023-02-20T21:19:32;97654.88;;;5.96;100.00
13594;BME280;6449;47.666;9.160;2023-02-20T21:24:26;97663.75;;;5.92;100.00
13594;BME280;6449;47.666;9.160;2023-02-20T21:29:19;97664.88;;;5.66;100.00
13594;BME280;6449;47.666;9.160;2023-02-20T21:34:13;97670.91;;;5.66;100.00
13594;BME280;6449;47.666;9.160;2023-02-20T21:39:09;97662.44;;;5.82;100.00
13594;BME280;6449;47.666;9.160;2023-02-20T21:44:03;97661.72;;;5.78;100.00
13594;BME280;6449;47.666;9.160;2023-02-20T21:49:13;97649.19;;;5.67;100.00
13594;BME280;6449;47.666;9.160;2023-02-20T21:54:08;97648.97;;;5.33;100.00
13594;BME280;6449;47.666;9.160;2023-02-20T21:59:02;97652.84;;;5.43;100.00
13594;BME280;6449;47.666;9.160;2023-02-20T22:03:57;97653.91;;;5.39;100.00
13594;BME280;6449;47.666;9.160;2023-02-20T22:08:49;97654.75;;;5.19;100.00
13594;BME280;6449;47.666;9.160;2023-02-20T22:14:01;97650.50;;;5.16;100.00
13594;BME280;6449;47.666;9.160;2023-02-20T22:19:12;97648.97;;;5.12;100.00
13594;BME280;6449;47.666;9.160;2023-02-20T22:24:23;97652.59;;;5.08;100.00
13594;BME280;6449;47.666;9.160;2023-02-20T22:29:36;97647.00;;;4.97;100.00
13594;BME280;6449;47.666;9.160;2023-02-20T22:34:46;97638.19;;;4.79;100.00
13594;BME280;6449;47.666;9.160;2023-02-20T22:40:04;97626.69;;;4.64;100.00
13594;BME280;6449;47.666;9.160;2023-02-20T22:45:16;97637.34;;;4.58;100.00
13594;BME280;6449;47.666;9.160;2023-02-20T22:50:27;97628.91;;;4.52;100.00
13594;BME280;6449;47.666;9.160;2023-02-20T22:55:38;97626.03;;;4.59;100.00
13594;BME280;6449;47.666;9.160;2023-02-20T23:00:50;97626.94;;;4.58;100.00
13594;BME280;6449;47.666;9.160;2023-02-20T23:06:01;97629.34;;;4.63;100.00
13594;BME280;6449;47.666;9.160;2023-02-20T23:11:11;97623.44;;;4.59;100.00
13594;BME280;6449;47.666;9.160;2023-02-20T23:16:24;97629.09;;;4.47;100.00
13594;BME280;6449;47.666;9.160;2023-02-20T23:21:35;97627.97;;;4.54;100.00
13594;BME280;6449;47.666;9.160;2023-02-20T23:26:50;97633.03;;;4.57;100.00
13594;BME280;6449;47.666;9.160;2023-02-20T23:32:04;97627.16;;;4.52;100.00
13594;BME280;6449;47.666;9.160;2023-02-20T23:37:15;97628.50;;;4.40;100.00
13594;BME280;6449;47.666;9.160;2023-02-20T23:42:26;97628.59;;;4.15;100.00
13594;BME280;6449;47.666;9.160;2023-02-20T23:47:39;97626.00;;;4.15;100.00
13594;BME280;6449;47.666;9.160;2023-02-20T23:52:50;97626.38;;;4.06;100.00
13594;BME280;6449;47.666;9.160;2023-02-20T23:58:01;97615.19;;;4.28;100.00
